Time;durP1;ratioP1;P1;durP2;ratioP2;P2;SDS_P1;SDS_P2;PMS_P1;PMS_P2;Temp;Humidity;BMP_temperature;BMP_pressure;BME280_temperature;BME280_humidity;BME280_pressure;Samples;Min_cycle;Max_cycle;Signal;HPM_P1;HPM_P2
2022/10/22 00:01:16;;;;;;;;;;;19.70;72.70;;;;;;5054109;28;19932;-62
2022/10/22 00:03:42;;;;;;;;;;;19.80;73.40;;;;;;5054169;28;19968;-62
2022/10/22 00:06:07;;;;;;;;;;;19.80;72.70;;;;;;5052609;28;19925;-63
2022/10/22 00:08:33;;;;;;;;;;;19.80;72.70;;;;;;5054295;28;19929;-62
2022/10/22 00:10:58;;;;;;;;;;;19.70;72.60;;;;;;5053260;28;19921;-62
2022/10/22 00:13:24;;;;;;;;;;;19.70;72.60;;;;;;5053095;28;19968;-62
2022/10/22 00:15:49;;;;;;;;;;;19.70;72.70;;;;;;5054161;28;19925;-62
2022/10/22 00:18:15;;;;;;;;;;;19.70;72.60;;;;;;5053764;28;19921;-62
2022/10/22 00:20:40;;;;;;;;;;;19.70;72.60;;;;;;5052945;28;19924;-61
2022/10/22 00:23:06;;;;;;;;;;;19.70;72.60;;;;;;5053947;28;19970;-62
2022/10/22 00:25:32;;;;;;;;;;;19.70;72.60;;;;;;5053660;28;19931;-62
2022/10/22 00:27:58;;;;;;;;;;;19.70;72.60;;;;;;5053241;28;19925;-62
2022/10/22 00:30:23;;;;;;;;;;;19.70;72.60;;;;;;5053561;28;20023;-62
2022/10/22 00:32:49;;;;;;;;;;;19.70;72.60;;;;;;5068970;28;19925;-62
2022/10/22 00:35:14;;;;;;;;;;;19.70;72.60;;;;;;5052727;28;19986;-62
2022/10/22 00:37:40;;;;;;;;;;;19.70;72.50;;;;;;5053757;28;19932;-62
2022/10/22 00:40:05;;;;;;;;;;;19.70;72.50;;;;;;5052580;28;19925;-62
2022/10/22 00:42:31;;;;;;;;;;;19.70;72.50;;;;;;5053233;28;20392;-62
2022/10/22 00:45:05;;;;;;;;;;;19.70;72.50;;;;;;5053431;28;19932;-61
2022/10/22 00:47:31;;;;;;;;;;;19.70;72.50;;;;;;5052691;28;19978;-62
2022/10/22 00:49:57;;;;;;;;;;;19.70;72.50;;;;;;5053272;28;19929;-63
2022/10/22 00:52:23;;;;;;;;;;;19.70;72.40;;;;;;5052311;28;20065;-63
2022/10/22 00:54:48;;;;;;;;;;;19.70;72.40;;;;;;5052598;28;19932;-62
2022/10/22 00:57:14;;;;;;;;;;;19.70;72.50;;;;;;5053154;28;19947;-62
2022/10/22 00:59:40;;;;;;;;;;;19.70;72.40;;;;;;5068934;28;20002;-62
2022/10/22 01:02:05;;;;;;;;;;;19.70;72.40;;;;;;5052535;28;19971;-63
2022/10/22 01:04:31;;;;;;;;;;;19.70;72.50;;;;;;5052692;28;19936;-62
2022/10/22 01:06:56;;;;;;;;;;;19.60;72.40;;;;;;5053215;28;20363;-62
2022/10/22 01:09:21;;;;;;;;;;;19.60;72.30;;;;;;5067096;28;19920;-62
2022/10/22 01:11:59;;;;;;;;;;;19.60;72.30;;;;;;5052652;28;20372;-62
2022/10/22 01:14:27;;;;;;;;;;;19.60;72.30;;;;;;5034594;28;19959;-62
2022/10/22 01:16:54;;;;;;;;;;;19.60;72.30;;;;;;5052207;28;20019;-63
2022/10/22 01:19:38;;;;;;;;;;;19.60;72.30;;;;;;5067701;28;19932;-62
2022/10/22 01:22:07;;;;;;;;;;;19.60;72.30;;;;;;5068413;28;20023;-62
2022/10/22 01:24:48;;;;;;;;;;;19.60;72.20;;;;;;5067105;28;20362;-62
2022/10/22 01:27:32;;;;;;;;;;;19.60;72.30;;;;;;5067725;28;20376;-62
2022/10/22 01:30:02;;;;;;;;;;;19.60;72.30;;;;;;5051820;28;20466;-62
2022/10/22 01:32:28;;;;;;;;;;;19.60;72.20;;;;;;5068065;28;19924;-62
2022/10/22 01:34:55;;;;;;;;;;;19.60;72.30;;;;;;5068323;28;20024;-62
2022/10/22 01:37:21;;;;;;;;;;;19.60;72.20;;;;;;5066992;28;20012;-62
2022/10/22 01:39:47;;;;;;;;;;;19.60;72.20;;;;;;5052087;28;19967;-62
2022/10/22 01:42:12;;;;;;;;;;;19.60;72.30;;;;;;5052445;28;20441;-62
2022/10/22 01:44:38;;;;;;;;;;;19.60;72.20;;;;;;5051534;28;19932;-62
2022/10/22 01:47:13;;;;;;;;;;;19.60;72.30;;;;;;5052706;28;20429;-62
2022/10/22 01:49:43;;;;;;;;;;;19.60;72.20;;;;;;5067890;28;19924;-63
2022/10/22 01:52:14;;;;;;;;;;;19.60;72.20;;;;;;5051344;28;19970;-63
2022/10/22 01:54:48;;;;;;;;;;;19.60;72.20;;;;;;5051786;28;20404;-62
2022/10/22 01:57:37;;;;;;;;;;;19.60;72.20;;;;;;5066558;28;19936;-62
2022/10/22 02:00:05;;;;;;;;;;;19.60;72.20;;;;;;5052632;28;19924;-62
2022/10/22 02:02:35;;;;;;;;;;;19.60;72.20;;;;;;5051551;28;19925;-62
2022/10/22 02:05:06;;;;;;;;;;;19.60;72.20;;;;;;5050768;28;20435;-62
2022/10/22 02:07:33;;;;;;;;;;;19.60;72.20;;;;;;5065815;28;20016;-62
2022/10/22 02:09:59;;;;;;;;;;;19.60;72.20;;;;;;5067720;28;20398;-62
2022/10/22 02:12:24;;;;;;;;;;;19.60;72.20;;;;;;5066556;28;19925;-62
2022/10/22 02:14:50;;;;;;;;;;;19.50;72.20;;;;;;5052221;28;19925;-62
2022/10/22 02:17:17;;;;;;;;;;;19.50;72.20;;;;;;5067641;28;19948;-62
2022/10/22 02:19:52;;;;;;;;;;;19.50;72.10;;;;;;5067069;28;19924;-62
2022/10/22 02:22:18;;;;;;;;;;;19.50;72.20;;;;;;5067759;28;19933;-62
2022/10/22 02:24:43;;;;;;;;;;;19.50;72.10;;;;;;5067740;28;19928;-62
2022/10/22 02:27:15;;;;;;;;;;;19.50;72.10;;;;;;5051152;28;19925;-62
2022/10/22 02:29:46;;;;;;;;;;;19.50;72.20;;;;;;5051621;28;20012;-62
2022/10/22 02:32:12;;;;;;;;;;;19.50;72.20;;;;;;5051723;28;19925;-62
2022/10/22 02:34:37;;;;;;;;;;;19.50;72.20;;;;;;5066940;28;19925;-62
2022/10/22 02:37:03;;;;;;;;;;;19.50;72.20;;;;;;5054834;28;19955;-61
2022/10/22 02:39:28;;;;;;;;;;;19.50;72.20;;;;;;5055148;28;19924;-61
2022/10/22 02:41:54;;;;;;;;;;;19.50;72.10;;;;;;5054969;28;20372;-62
2022/10/22 02:44:20;;;;;;;;;;;19.50;72.10;;;;;;5054209;28;20438;-62
2022/10/22 02:46:45;;;;;;;;;;;19.50;72.70;;;;;;5055196;28;20331;-62
2022/10/22 02:49:11;;;;;;;;;;;19.50;72.10;;;;;;5055050;28;19931;-62
2022/10/22 02:51:36;;;;;;;;;;;19.50;72.10;;;;;;5055702;28;19931;-62
2022/10/22 02:54:02;;;;;;;;;;;19.50;72.10;;;;;;5054655;28;19967;-62
2022/10/22 02:56:27;;;;;;;;;;;19.50;72.10;;;;;;5055144;28;20535;-62
2022/10/22 02:58:53;;;;;;;;;;;19.50;72.10;;;;;;5055244;28;20303;-62
2022/10/22 03:01:18;;;;;;;;;;;19.50;72.10;;;;;;5054548;28;20047;-62
2022/10/22 03:03:44;;;;;;;;;;;19.50;72.10;;;;;;5054542;28;19972;-62
2022/10/22 03:06:09;;;;;;;;;;;19.50;72.10;;;;;;5054906;28;19964;-63
2022/10/22 03:08:35;;;;;;;;;;;19.50;72.20;;;;;;5054341;28;19994;-63
2022/10/22 03:11:00;;;;;;;;;;;19.50;72.20;;;;;;5055527;28;19925;-62
2022/10/22 03:13:26;;;;;;;;;;;19.50;72.20;;;;;;5054827;28;20277;-62
2022/10/22 03:15:51;;;;;;;;;;;19.50;72.20;;;;;;5054283;28;19939;-62
2022/10/22 03:18:17;;;;;;;;;;;19.50;72.10;;;;;;5055050;28;20380;-62
2022/10/22 03:20:42;;;;;;;;;;;19.60;72.20;;;;;;5055211;28;19992;-62
2022/10/22 03:23:08;;;;;;;;;;;19.50;72.10;;;;;;5054009;28;19925;-62
2022/10/22 03:25:34;;;;;;;;;;;19.60;72.10;;;;;;5054701;28;19929;-62
2022/10/22 03:28:01;;;;;;;;;;;19.60;72.10;;;;;;5055228;28;19932;-62
2022/10/22 03:30:26;;;;;;;;;;;19.60;72.10;;;;;;5054107;28;20047;-62
2022/10/22 03:32:51;;;;;;;;;;;19.60;72.20;;;;;;5054640;28;19976;-62
2022/10/22 03:35:17;;;;;;;;;;;19.60;72.10;;;;;;5053788;28;20369;-62
2022/10/22 03:37:42;;;;;;;;;;;19.60;72.10;;;;;;5053858;28;19925;-63
2022/10/22 03:40:10;;;;;;;;;;;19.60;72.10;;;;;;5054185;28;19931;-62
2022/10/22 03:42:36;;;;;;;;;;;19.60;72.10;;;;;;5069172;28;23070;-63
2022/10/22 03:45:02;;;;;;;;;;;19.60;72.60;;;;;;5053908;28;19990;-62
2022/10/22 03:47:27;;;;;;;;;;;19.60;72.00;;;;;;5069421;28;19928;-62
2022/10/22 03:49:53;;;;;;;;;;;19.70;72.10;;;;;;5053967;28;19932;-62
2022/10/22 03:52:18;;;;;;;;;;;19.70;72.00;;;;;;5054359;28;19924;-62
2022/10/22 03:54:44;;;;;;;;;;;19.70;72.00;;;;;;5054199;28;20015;-63
2022/10/22 03:57:09;;;;;;;;;;;19.70;72.00;;;;;;5053268;28;20245;-62
2022/10/22 03:59:35;;;;;;;;;;;19.70;72.00;;;;;;5054156;28;20062;-62
2022/10/22 04:02:01;;;;;;;;;;;19.70;72.00;;;;;;5043112;28;19932;-63
2022/10/22 04:04:26;;;;;;;;;;;19.70;72.00;;;;;;5032592;28;20388;-62
2022/10/22 04:06:52;;;;;;;;;;;19.80;72.00;;;;;;5033377;28;19925;-62
2022/10/22 04:09:17;;;;;;;;;;;19.80;72.00;;;;;;5033480;28;19931;-62
2022/10/22 04:11:43;;;;;;;;;;;19.80;72.00;;;;;;5033375;28;19937;-63
2022/10/22 04:14:10;;;;;;;;;;;19.80;72.00;;;;;;5033857;28;19926;-63
2022/10/22 04:16:36;;;;;;;;;;;19.80;72.00;;;;;;5033839;28;19925;-62
2022/10/22 04:19:01;;;;;;;;;;;19.80;72.00;;;;;;5048489;28;19947;-62
2022/10/22 04:21:27;;;;;;;;;;;19.80;72.00;;;;;;5033799;28;20361;-65
2022/10/22 04:23:52;;;;;;;;;;;19.90;72.00;;;;;;5034076;28;20401;-62
2022/10/22 04:26:18;;;;;;;;;;;19.90;72.00;;;;;;5032718;28;19925;-62
2022/10/22 04:28:43;;;;;;;;;;;19.90;71.90;;;;;;5034079;28;19929;-62
2022/10/22 04:31:09;;;;;;;;;;;19.90;72.00;;;;;;5049218;28;20336;-62
2022/10/22 04:33:35;;;;;;;;;;;19.90;72.00;;;;;;5053127;28;20395;-62
2022/10/22 04:36:04;;;;;;;;;;;19.90;71.90;;;;;;5053846;28;19978;-62
2022/10/22 04:38:30;;;;;;;;;;;19.90;71.90;;;;;;5052271;28;19920;-62
2022/10/22 04:40:55;;;;;;;;;;;19.90;71.90;;;;;;5052777;28;19925;-62
2022/10/22 04:43:21;;;;;;;;;;;19.90;71.90;;;;;;5052776;28;20037;-63
2022/10/22 04:45:46;;;;;;;;;;;19.90;71.90;;;;;;5053091;28;19925;-62
2022/10/22 04:48:12;;;;;;;;;;;20.00;71.90;;;;;;5052648;28;20355;-62
2022/10/22 04:50:37;;;;;;;;;;;20.00;71.90;;;;;;5068640;28;19932;-62
2022/10/22 04:53:03;;;;;;;;;;;20.00;71.90;;;;;;5053327;28;20576;-62
2022/10/22 04:55:28;;;;;;;;;;;20.00;71.90;;;;;;5051956;28;19924;-62
2022/10/22 04:57:54;;;;;;;;;;;20.00;71.90;;;;;;5052508;28;20467;-62
2022/10/22 05:00:19;;;;;;;;;;;20.00;71.90;;;;;;5051967;28;20019;-63
2022/10/22 05:02:48;;;;;;;;;;;20.00;71.80;;;;;;5068773;28;19947;-62
2022/10/22 05:05:14;;;;;;;;;;;20.00;72.40;;;;;;5052756;28;19928;-62
2022/10/22 05:07:39;;;;;;;;;;;20.00;71.80;;;;;;5052458;28;20289;-63
2022/10/22 05:10:05;;;;;;;;;;;20.00;71.80;;;;;;5052922;28;19978;-62
2022/10/22 05:12:30;;;;;;;;;;;20.10;71.80;;;;;;5052942;28;19937;-62
2022/10/22 05:14:56;;;;;;;;;;;20.00;71.80;;;;;;5052439;28;19971;-62
2022/10/22 05:17:21;;;;;;;;;;;20.10;71.80;;;;;;5067835;28;19925;-62
2022/10/22 05:19:47;;;;;;;;;;;20.10;71.80;;;;;;5051799;28;19925;-62
2022/10/22 05:22:12;;;;;;;;;;;20.10;71.90;;;;;;5051550;28;19925;-62
2022/10/22 05:24:38;;;;;;;;;;;20.10;71.80;;;;;;5052679;28;19924;-62
2022/10/22 05:27:03;;;;;;;;;;;20.10;71.80;;;;;;5053459;28;19933;-62
2022/10/22 05:29:29;;;;;;;;;;;20.10;71.80;;;;;;5067525;28;20292;-63
2022/10/22 05:31:54;;;;;;;;;;;20.10;71.70;;;;;;5053036;28;20412;-63
2022/10/22 05:34:20;;;;;;;;;;;20.10;71.80;;;;;;5052373;28;20392;-62
2022/10/22 05:36:45;;;;;;;;;;;20.10;71.70;;;;;;5051146;28;19924;-62
2022/10/22 05:39:11;;;;;;;;;;;20.10;71.70;;;;;;5051679;28;19925;-62
2022/10/22 05:41:36;;;;;;;;;;;20.10;71.70;;;;;;5052695;28;19996;-62
2022/10/22 05:44:02;;;;;;;;;;;20.10;71.70;;;;;;5051792;28;19991;-63
2022/10/22 05:46:28;;;;;;;;;;;20.10;71.70;;;;;;5052136;28;20326;-61
2022/10/22 05:48:58;;;;;;;;;;;20.10;71.70;;;;;;5052488;28;20376;-63
2022/10/22 05:51:24;;;;;;;;;;;20.10;71.70;;;;;;5051128;28;19925;-63
2022/10/22 05:53:50;;;;;;;;;;;20.10;71.70;;;;;;5052671;28;19965;-63
2022/10/22 05:56:16;;;;;;;;;;;20.10;71.70;;;;;;5052162;28;19925;-63
2022/10/22 05:58:42;;;;;;;;;;;20.20;71.70;;;;;;5051844;28;19925;-63
2022/10/22 06:01:10;;;;;;;;;;;20.10;71.70;;;;;;5052335;28;19924;-63
2022/10/22 06:03:35;;;;;;;;;;;20.20;71.70;;;;;;5050505;28;19979;-62
2022/10/22 06:06:02;;;;;;;;;;;20.20;71.70;;;;;;5052300;28;20368;-63
2022/10/22 06:08:28;;;;;;;;;;;20.20;71.70;;;;;;5052272;28;19972;-62
2022/10/22 06:10:53;;;;;;;;;;;20.20;71.60;;;;;;5069970;28;19982;-63
2022/10/22 06:13:19;;;;;;;;;;;20.20;71.60;;;;;;5056053;28;19924;-62
2022/10/22 06:15:44;;;;;;;;;;;20.20;71.60;;;;;;5055505;28;20001;-62
2022/10/22 06:18:10;;;;;;;;;;;20.20;71.60;;;;;;5054719;28;19925;-62
2022/10/22 06:20:35;;;;;;;;;;;20.20;71.70;;;;;;5056331;28;20318;-62
2022/10/22 06:23:01;;;;;;;;;;;20.20;71.60;;;;;;5056307;28;19925;-62
2022/10/22 06:25:26;;;;;;;;;;;20.20;71.60;;;;;;5054914;28;19929;-63
2022/10/22 06:27:52;;;;;;;;;;;20.20;71.60;;;;;;5055689;28;19929;-62
2022/10/22 06:30:17;;;;;;;;;;;20.20;71.60;;;;;;5056040;28;20019;-64
2022/10/22 06:32:42;;;;;;;;;;;20.20;71.60;;;;;;5055216;28;20284;-62
2022/10/22 06:35:08;;;;;;;;;;;20.20;71.60;;;;;;5055777;28;19931;-62
2022/10/22 06:37:33;;;;;;;;;;;20.20;71.50;;;;;;5055004;28;19933;-62
2022/10/22 06:39:59;;;;;;;;;;;20.20;71.60;;;;;;5054445;28;19924;-61
2022/10/22 06:42:24;;;;;;;;;;;20.20;71.60;;;;;;5054734;28;19924;-62
2022/10/22 06:44:50;;;;;;;;;;;20.20;71.60;;;;;;5055633;28;19976;-62
2022/10/22 06:47:15;;;;;;;;;;;20.20;71.60;;;;;;5054656;28;19924;-62
2022/10/22 06:49:41;;;;;;;;;;;20.30;71.70;;;;;;5055393;28;19932;-62
2022/10/22 06:52:07;;;;;;;;;;;20.30;71.80;;;;;;5055194;28;20467;-62
2022/10/22 06:54:32;;;;;;;;;;;20.30;71.80;;;;;;5054918;28;19972;-62
2022/10/22 06:56:58;;;;;;;;;;;20.30;71.70;;;;;;5055642;28;19931;-62
2022/10/22 06:59:23;;;;;;;;;;;20.30;71.80;;;;;;5055346;28;19994;-62
2022/10/22 07:01:49;;;;;;;;;;;20.30;71.70;;;;;;5069219;28;19925;-61
2022/10/22 07:04:14;;;;;;;;;;;20.30;71.70;;;;;;5055224;28;19929;-61
2022/10/22 07:06:39;;;;;;;;;;;20.30;71.90;;;;;;5055126;28;19925;-61
2022/10/22 07:09:05;;;;;;;;;;;20.30;71.90;;;;;;5054729;28;20779;-62
2022/10/22 07:11:35;;;;;;;;;;;20.30;71.90;;;;;;5053888;28;19927;-62
2022/10/22 07:14:01;;;;;;;;;;;20.30;72.00;;;;;;5070038;28;19932;-62
2022/10/22 07:16:26;;;;;;;;;;;20.30;72.00;;;;;;5055016;28;19929;-62
2022/10/22 07:18:51;;;;;;;;;;;20.30;72.10;;;;;;5054992;28;20376;-61
2022/10/22 07:21:17;;;;;;;;;;;20.30;72.10;;;;;;5052876;28;20004;-63
2022/10/22 07:23:43;;;;;;;;;;;20.30;72.20;;;;;;5054211;28;20331;-62
2022/10/22 07:26:09;;;;;;;;;;;20.30;72.20;;;;;;5054810;28;20019;-62
2022/10/22 07:28:36;;;;;;;;;;;20.40;72.20;;;;;;5069818;28;19925;-62
2022/10/22 07:31:02;;;;;;;;;;;20.40;72.30;;;;;;5055060;28;20024;-63
2022/10/22 07:33:27;;;;;;;;;;;20.40;72.30;;;;;;5070388;28;19975;-62
2022/10/22 07:35:59;;;;;;;;;;;20.40;72.30;;;;;;5054124;28;20457;-62
2022/10/22 07:38:25;;;;;;;;;;;20.40;72.20;;;;;;5052542;28;19928;-63
2022/10/22 07:40:51;;;;;;;;;;;20.40;72.30;;;;;;5054117;28;19925;-62
2022/10/22 07:43:16;;;;;;;;;;;20.40;72.30;;;;;;5053745;28;19925;-62
2022/10/22 07:45:42;;;;;;;;;;;20.40;72.30;;;;;;5054794;28;20295;-62
2022/10/22 07:48:07;;;;;;;;;;;20.40;72.20;;;;;;5054184;28;19925;-60
2022/10/22 07:50:33;;;;;;;;;;;20.40;72.30;;;;;;5053687;28;20360;-62
2022/10/22 07:52:58;;;;;;;;;;;20.50;72.30;;;;;;5053594;28;19940;-62
2022/10/22 07:55:24;;;;;;;;;;;20.50;72.40;;;;;;5053946;28;19931;-62
2022/10/22 07:57:49;;;;;;;;;;;20.50;72.30;;;;;;5053344;28;20437;-62
2022/10/22 08:00:15;;;;;;;;;;;20.50;72.20;;;;;;5054269;28;19925;-61
2022/10/22 08:02:40;;;;;;;;;;;20.50;72.20;;;;;;5054458;28;19928;-61
2022/10/22 08:05:06;;;;;;;;;;;20.50;72.20;;;;;;5035237;28;19925;-62
2022/10/22 08:07:32;;;;;;;;;;;20.50;72.20;;;;;;5053831;28;20331;-62
2022/10/22 08:09:57;;;;;;;;;;;20.50;72.20;;;;;;5053178;28;19932;-61
2022/10/22 08:12:23;;;;;;;;;;;20.50;72.30;;;;;;5053256;28;19956;-61
2022/10/22 08:14:48;;;;;;;;;;;20.50;72.30;;;;;;5054302;28;20357;-61
2022/10/22 08:17:14;;;;;;;;;;;20.50;72.30;;;;;;5052029;28;20021;-61
2022/10/22 08:19:39;;;;;;;;;;;20.50;72.30;;;;;;5053919;28;19935;-61
2022/10/22 08:22:05;;;;;;;;;;;20.50;72.30;;;;;;5053716;28;20284;-62
2022/10/22 08:24:30;;;;;;;;;;;20.50;72.40;;;;;;5052464;28;19929;-61
2022/10/22 08:26:56;;;;;;;;;;;20.50;72.30;;;;;;5037905;28;19925;-62
2022/10/22 08:29:22;;;;;;;;;;;20.50;72.30;;;;;;5032753;28;19971;-61
2022/10/22 08:31:48;;;;;;;;;;;20.50;72.40;;;;;;5032349;28;19924;-62
2022/10/22 08:34:13;;;;;;;;;;;20.50;72.30;;;;;;5032006;28;20270;-61
2022/10/22 08:36:38;;;;;;;;;;;20.50;72.40;;;;;;5037751;28;19929;-61
2022/10/22 08:39:04;;;;;;;;;;;20.50;72.40;;;;;;5031671;28;20289;-62
2022/10/22 08:41:30;;;;;;;;;;;20.50;72.30;;;;;;5038169;28;20024;-62
2022/10/22 08:44:14;;;;;;;;;;;20.50;72.40;;;;;;5060568;28;20435;-62
2022/10/22 08:46:44;;;;;;;;;;;20.50;72.30;;;;;;5033999;28;19926;-62
2022/10/22 08:49:11;;;;;;;;;;;20.50;72.40;;;;;;5048298;28;19925;-61
2022/10/22 08:51:40;;;;;;;;;;;20.50;72.40;;;;;;5048576;28;20012;-62
2022/10/22 08:54:27;;;;;;;;;;;20.50;72.60;;;;;;5032289;28;19925;-60
2022/10/22 08:56:55;;;;;;;;;;;20.50;72.50;;;;;;5033251;28;19925;-59
2022/10/22 08:59:39;;;;;;;;;;;20.50;72.50;;;;;;5032267;28;19960;-61
2022/10/22 09:02:08;;;;;;;;;;;20.50;72.60;;;;;;5036309;28;19935;-59
2022/10/22 09:04:42;;;;;;;;;;;20.60;72.70;;;;;;5068362;28;19994;-60
2022/10/22 09:07:07;;;;;;;;;;;20.60;72.70;;;;;;5067309;28;19925;-60
2022/10/22 09:09:34;;;;;;;;;;;20.60;73.30;;;;;;5067881;28;19924;-60
2022/10/22 09:12:00;;;;;;;;;;;20.60;72.70;;;;;;5067302;28;19948;-59
2022/10/22 09:14:26;;;;;;;;;;;20.60;72.70;;;;;;5067202;28;20285;-60
2022/10/22 09:16:57;;;;;;;;;;;20.70;72.70;;;;;;5067377;28;19925;-59
2022/10/22 09:19:23;;;;;;;;;;;20.70;72.70;;;;;;5052175;28;20400;-60
2022/10/22 09:22:03;;;;;;;;;;;20.70;72.80;;;;;;5035444;28;19925;-60
2022/10/22 09:24:38;;;;;;;;;;;20.70;72.70;;;;;;5033384;28;20016;-60
2022/10/22 09:27:30;;;;;;;;;;;20.70;72.70;;;;;;5031959;28;19931;-60
2022/10/22 09:29:56;;;;;;;;;;;20.70;72.60;;;;;;5032668;28;20416;-60
2022/10/22 09:32:21;;;;;;;;;;;20.70;72.50;;;;;;5031513;28;19971;-61
2022/10/22 09:34:47;;;;;;;;;;;20.70;72.50;;;;;;5031473;28;20699;-59
2022/10/22 09:37:13;;;;;;;;;;;20.70;72.50;;;;;;5032347;28;19972;-60
2022/10/22 09:39:39;;;;;;;;;;;20.70;72.40;;;;;;5047500;28;19925;-60
2022/10/22 09:42:06;;;;;;;;;;;20.70;72.50;;;;;;5031401;28;19929;-60
2022/10/22 09:44:34;;;;;;;;;;;20.70;72.50;;;;;;5032117;28;19925;-60
2022/10/22 09:47:03;;;;;;;;;;;20.70;72.40;;;;;;5032665;28;19925;-59
2022/10/22 09:49:29;;;;;;;;;;;20.70;72.30;;;;;;5031334;28;20380;-60
2022/10/22 09:51:57;;;;;;;;;;;20.60;72.20;;;;;;5032333;28;20020;-60
2022/10/22 09:54:24;;;;;;;;;;;20.60;72.10;;;;;;5032395;28;19925;-60
2022/10/22 09:56:56;;;;;;;;;;;20.60;72.10;;;;;;5031753;28;19948;-60
2022/10/22 09:59:29;;;;;;;;;;;20.60;72.10;;;;;;5050065;28;19968;-61
2022/10/22 10:01:55;;;;;;;;;;;20.60;72.10;;;;;;5052289;28;19929;-60
2022/10/22 10:04:20;;;;;;;;;;;20.60;72.00;;;;;;5051062;28;19928;-60
2022/10/22 10:06:49;;;;;;;;;;;20.60;72.00;;;;;;5052218;28;19925;-60
2022/10/22 10:09:14;;;;;;;;;;;20.60;72.30;;;;;;5066215;28;20345;-61
2022/10/22 10:11:42;;;;;;;;;;;20.60;72.50;;;;;;5051225;28;19932;-61
2022/10/22 10:14:23;;;;;;;;;;;20.60;72.60;;;;;;5067625;28;19925;-61
2022/10/22 10:16:52;;;;;;;;;;;20.60;72.60;;;;;;5066457;28;19932;-62
2022/10/22 10:19:35;;;;;;;;;;;20.60;72.70;;;;;;5051077;28;19924;-62
2022/10/22 10:22:12;;;;;;;;;;;20.60;72.70;;;;;;5049318;28;19936;-63
2022/10/22 10:24:50;;;;;;;;;;;20.60;72.80;;;;;;5049352;28;19924;-62
2022/10/22 10:27:23;;;;;;;;;;;20.60;72.80;;;;;;5049869;28;19971;-62
2022/10/22 10:29:52;;;;;;;;;;;20.60;72.80;;;;;;5063559;28;20007;-62
2022/10/22 10:32:24;;;;;;;;;;;20.50;72.70;;;;;;5048310;28;19940;-62
2022/10/22 10:35:02;;;;;;;;;;;20.60;72.90;;;;;;5032589;28;21036;-62
2022/10/22 10:37:28;;;;;;;;;;;20.50;72.80;;;;;;5050898;28;19933;-62
2022/10/22 10:40:11;;;;;;;;;;;20.50;72.90;;;;;;5055510;28;19925;-62
2022/10/22 10:42:43;;;;;;;;;;;20.50;72.80;;;;;;5063477;28;20008;-62
2022/10/22 10:45:16;;;;;;;;;;;20.50;72.90;;;;;;5029795;28;20719;-62
2022/10/22 10:48:01;;;;;;;;;;;20.50;72.90;;;;;;5052289;28;19944;-61
2022/10/22 10:50:45;;;;;;;;;;;20.50;72.90;;;;;;5030922;28;20023;-61
2022/10/22 10:53:20;;;;;;;;;;;20.50;73.00;;;;;;5030861;28;19925;-61
2022/10/22 10:55:54;;;;;;;;;;;20.50;72.90;;;;;;5030602;28;19925;-61
2022/10/22 10:58:24;;;;;;;;;;;20.50;73.00;;;;;;5033837;28;19961;-63
2022/10/22 11:00:56;;;;;;;;;;;20.50;73.00;;;;;;5033562;28;20336;-63
2022/10/22 11:03:41;;;;;;;;;;;20.50;73.20;;;;;;5033901;28;19925;-63
2022/10/22 11:06:16;;;;;;;;;;;20.50;73.20;;;;;;5034359;28;19925;-63
2022/10/22 11:08:44;;;;;;;;;;;20.50;73.10;;;;;;5034185;28;19928;-62
2022/10/22 11:11:12;;;;;;;;;;;20.50;73.10;;;;;;5033893;28;19929;-62
2022/10/22 11:13:40;;;;;;;;;;;20.50;73.10;;;;;;5034705;28;19971;-63
2022/10/22 11:16:09;;;;;;;;;;;20.50;73.10;;;;;;5035318;28;20024;-65
2022/10/22 11:18:36;;;;;;;;;;;20.50;73.00;;;;;;5033405;28;19960;-62
2022/10/22 11:21:01;;;;;;;;;;;20.50;73.10;;;;;;5032294;28;19976;-62
2022/10/22 11:23:28;;;;;;;;;;;20.50;73.10;;;;;;5033921;28;19968;-62
2022/10/22 11:25:54;;;;;;;;;;;20.50;73.10;;;;;;5034815;28;20288;-62
2022/10/22 11:28:46;;;;;;;;;;;20.50;73.10;;;;;;5034154;28;20323;-62
2022/10/22 11:31:15;;;;;;;;;;;20.50;73.10;;;;;;5031929;28;19925;-62
2022/10/22 11:34:03;;;;;;;;;;;20.50;73.20;;;;;;5035063;28;19928;-62
2022/10/22 11:36:28;;;;;;;;;;;20.40;73.10;;;;;;5033091;28;19947;-62
2022/10/22 11:38:54;;;;;;;;;;;20.50;73.50;;;;;;5039395;28;20439;-62
2022/10/22 11:41:23;;;;;;;;;;;20.40;73.10;;;;;;5052300;28;19928;-63
2022/10/22 11:43:55;;;;;;;;;;;20.50;73.10;;;;;;5054742;28;19924;-62
2022/10/22 11:46:20;;;;;;;;;;;20.50;73.10;;;;;;5054018;28;19928;-62
2022/10/22 11:48:59;;;;;;;;;;;20.50;73.10;;;;;;5053966;28;20023;-61
2022/10/22 11:51:28;;;;;;;;;;;20.40;73.10;;;;;;5053563;28;20295;-59
2022/10/22 11:53:54;;;;;;;;;;;20.50;73.10;;;;;;5054643;28;19932;-59
2022/10/22 11:56:21;;;;;;;;;;;20.50;73.20;;;;;;5052979;28;19921;-60
2022/10/22 11:58:47;;;;;;;;;;;20.40;73.10;;;;;;5036443;28;20313;-60
2022/10/22 12:01:12;;;;;;;;;;;20.40;73.10;;;;;;5053991;28;20364;-61
2022/10/22 12:03:42;;;;;;;;;;;20.40;73.30;;;;;;5053772;28;19927;-62
2022/10/22 12:06:11;;;;;;;;;;;20.40;73.40;;;;;;5053580;28;19925;-62
2022/10/22 12:08:43;;;;;;;;;;;20.40;73.40;;;;;;5053432;28;20372;-61
2022/10/22 12:11:09;;;;;;;;;;;20.40;73.60;;;;;;5052665;28;19932;-62
2022/10/22 12:13:55;;;;;;;;;;;20.40;73.60;;;;;;5054042;28;19929;-60
2022/10/22 12:16:22;;;;;;;;;;;20.40;73.70;;;;;;5053195;28;19925;-60
2022/10/22 12:18:47;;;;;;;;;;;20.40;73.70;;;;;;5036137;28;19925;-60
2022/10/22 12:21:13;;;;;;;;;;;20.50;73.70;;;;;;5035947;28;20192;-60
2022/10/22 12:23:38;;;;;;;;;;;20.50;73.70;;;;;;5035226;28;19948;-62
2022/10/22 12:26:04;;;;;;;;;;;20.50;73.70;;;;;;5053383;28;19951;-63
2022/10/22 12:28:36;;;;;;;;;;;20.50;73.40;;;;;;5053515;28;20016;-62
2022/10/22 12:31:02;;;;;;;;;;;20.70;73.50;;;;;;5048158;28;19933;-63
2022/10/22 12:33:28;;;;;;;;;;;20.70;73.50;;;;;;5032651;28;19925;-63
2022/10/22 12:35:56;;;;;;;;;;;20.70;73.30;;;;;;5033236;28;19960;-64
2022/10/22 12:38:22;;;;;;;;;;;20.70;73.30;;;;;;5032322;28;19928;-64
2022/10/22 12:40:49;;;;;;;;;;;20.70;73.40;;;;;;5048327;28;19925;-61
2022/10/22 12:43:18;;;;;;;;;;;20.70;73.50;;;;;;5032622;28;19929;-63
2022/10/22 12:45:44;;;;;;;;;;;20.80;73.40;;;;;;5032620;28;19925;-63
2022/10/22 12:48:13;;;;;;;;;;;20.90;73.40;;;;;;5048829;28;20385;-61
2022/10/22 12:50:39;;;;;;;;;;;20.80;72.80;;;;;;5048494;28;19921;-59
2022/10/22 12:53:06;;;;;;;;;;;20.80;72.60;;;;;;5032654;28;20301;-60
2022/10/22 12:55:31;;;;;;;;;;;20.80;72.40;;;;;;5033013;28;19921;-60
2022/10/22 12:57:57;;;;;;;;;;;20.80;72.70;;;;;;5048860;28;19925;-60
2022/10/22 13:00:23;;;;;;;;;;;20.80;72.80;;;;;;5032264;28;19925;-61
2022/10/22 13:02:49;;;;;;;;;;;20.70;72.80;;;;;;5033015;28;20389;-62
2022/10/22 13:05:26;;;;;;;;;;;20.70;72.90;;;;;;5047735;28;19976;-61
2022/10/22 13:08:02;;;;;;;;;;;20.70;73.00;;;;;;5032154;28;19929;-62
2022/10/22 13:10:31;;;;;;;;;;;20.70;73.00;;;;;;5051111;28;19925;-60
2022/10/22 13:12:57;;;;;;;;;;;20.70;73.00;;;;;;5051102;28;19921;-61
2022/10/22 13:15:28;;;;;;;;;;;20.70;73.20;;;;;;5052744;28;20327;-61
2022/10/22 13:18:06;;;;;;;;;;;20.70;73.20;;;;;;5052131;28;19936;-62
2022/10/22 13:20:32;;;;;;;;;;;20.70;73.30;;;;;;5050856;28;19932;-61
2022/10/22 13:23:02;;;;;;;;;;;20.60;73.80;;;;;;5068042;28;19925;-62
2022/10/22 13:25:30;;;;;;;;;;;20.60;73.30;;;;;;5049305;28;19929;-61
2022/10/22 13:27:56;;;;;;;;;;;20.60;73.30;;;;;;5049643;28;19935;-61
2022/10/22 13:30:29;;;;;;;;;;;20.60;73.30;;;;;;5052916;28;20004;-62
2022/10/22 13:32:55;;;;;;;;;;;20.60;73.50;;;;;;5053044;28;19925;-61
2022/10/22 13:35:22;;;;;;;;;;;20.60;73.50;;;;;;5051795;28;19947;-62
2022/10/22 13:37:48;;;;;;;;;;;20.60;73.50;;;;;;5052648;28;19924;-61
2022/10/22 13:40:13;;;;;;;;;;;20.60;73.50;;;;;;5052299;28;19948;-61
2022/10/22 13:42:39;;;;;;;;;;;20.60;73.50;;;;;;5052413;28;19970;-61
2022/10/22 13:45:05;;;;;;;;;;;20.60;73.60;;;;;;5052994;28;20296;-61
2022/10/22 13:47:30;;;;;;;;;;;20.50;73.50;;;;;;5052659;28;19925;-61
2022/10/22 13:49:57;;;;;;;;;;;20.50;73.60;;;;;;5051782;28;19925;-62
2022/10/22 13:52:26;;;;;;;;;;;20.50;73.60;;;;;;5052305;28;19924;-62
2022/10/22 13:54:51;;;;;;;;;;;20.50;73.60;;;;;;5067407;28;19921;-62
2022/10/22 13:57:17;;;;;;;;;;;20.50;73.70;;;;;;5052216;28;20430;-62
2022/10/22 13:59:42;;;;;;;;;;;20.50;73.70;;;;;;5052684;28;19924;-61
2022/10/22 14:02:09;;;;;;;;;;;20.50;73.50;;;;;;5051795;28;19920;-61
2022/10/22 14:04:34;;;;;;;;;;;20.50;73.60;;;;;;5052901;28;19936;-61
2022/10/22 14:07:00;;;;;;;;;;;20.50;73.70;;;;;;5052036;28;19931;-62
2022/10/22 14:09:25;;;;;;;;;;;20.60;73.70;;;;;;5067219;28;19956;-61
2022/10/22 14:11:51;;;;;;;;;;;20.60;73.60;;;;;;5051491;28;20288;-61
2022/10/22 14:14:17;;;;;;;;;;;20.60;73.60;;;;;;5052292;28;19929;-62
2022/10/22 14:16:43;;;;;;;;;;;20.70;73.60;;;;;;5051652;28;20351;-62
2022/10/22 14:19:13;;;;;;;;;;;20.70;73.60;;;;;;5068035;28;20364;-62